Time;durP1;ratioP1;P1;durP2;ratioP2;P2;SDS_P1;SDS_P2;PMS_P1;PMS_P2;Temp;Humidity;BMP_temperature;BMP_pressure;BME280_temperature;BME280_humidity;BME280_pressure;Samples;Min_cycle;Max_cycle;Signal;HPM_P1;HPM_P2
2024/01/29 00:01:14;;;;;;;;;;;;;;;12.90;80.90;101362.31;10369433;28;97067;-82
2024/01/29 00:06:18;;;;;;;;;;;;;;;12.93;80.48;101364.84;10373211;28;96792;-83
2024/01/29 00:11:24;;;;;;;;;;;;;;;12.88;80.53;101366.75;10372773;28;96779;-82
2024/01/29 00:16:28;;;;;;;;;;;;;;;12.89;80.53;101362.34;10372670;28;97653;-83
2024/01/29 00:21:31;;;;;;;;;;;;;;;12.89;80.75;101357.94;10372405;28;96648;-82
2024/01/29 00:26:38;;;;;;;;;;;;;;;12.88;80.73;101365.91;10372992;28;96709;-82
2024/01/29 00:31:41;;;;;;;;;;;;;;;12.92;80.42;101356.97;10378276;28;97467;-81
2024/01/29 00:36:44;;;;;;;;;;;;;;;12.94;80.31;101356.03;10414604;28;96974;-81
2024/01/29 00:41:49;;;;;;;;;;;;;;;12.91;80.50;101352.59;10381236;28;96868;-82
2024/01/29 00:46:52;;;;;;;;;;;;;;;12.80;80.92;101352.94;10371441;28;97321;-82
2024/01/29 00:51:56;;;;;;;;;;;;;;;12.69;81.38;101354.19;10373474;28;96701;-82
2024/01/29 00:57:00;;;;;;;;;;;;;;;12.69;81.41;101359.47;10371918;28;97494;-82
2024/01/29 01:02:04;;;;;;;;;;;;;;;12.61;81.83;101350.88;10371772;28;96797;-83
2024/01/29 01:07:07;;;;;;;;;;;;;;;12.66;81.65;101355.13;10371171;28;96803;-83
2024/01/29 01:12:11;;;;;;;;;;;;;;;12.60;81.76;101352.66;10371450;28;96611;-82
2024/01/29 01:17:15;;;;;;;;;;;;;;;12.55;81.91;101344.00;10371149;28;96771;-82
2024/01/29 01:22:18;;;;;;;;;;;;;;;12.47;82.31;101338.97;10371617;28;96782;-82
2024/01/29 01:27:23;;;;;;;;;;;;;;;12.46;82.27;101336.38;10371223;28;96726;-82
2024/01/29 01:32:26;;;;;;;;;;;;;;;12.42;82.45;101327.69;10376052;28;97938;-82
2024/01/29 01:37:29;;;;;;;;;;;;;;;12.35;82.64;101317.34;10378233;28;96691;-81
2024/01/29 01:42:34;;;;;;;;;;;;;;;12.41;82.44;101318.00;10379113;28;96773;-81
2024/01/29 01:47:37;;;;;;;;;;;;;;;12.32;82.65;101317.44;10377391;28;97431;-82
2024/01/29 01:52:41;;;;;;;;;;;;;;;12.32;82.70;101320.94;10378125;28;97274;-82
2024/01/29 01:57:46;;;;;;;;;;;;;;;12.32;82.49;101313.00;10377241;28;97015;-82
2024/01/29 02:02:49;;;;;;;;;;;;;;;12.31;82.72;101316.56;10377886;28;97239;-82
2024/01/29 02:07:53;;;;;;;;;;;;;;;12.27;82.52;101317.56;10377081;28;97066;-82
2024/01/29 02:12:57;;;;;;;;;;;;;;;12.29;82.23;101312.22;10377317;28;96756;-82
2024/01/29 02:18:01;;;;;;;;;;;;;;;12.31;81.75;101311.28;10335622;28;97469;-82
2024/01/29 02:23:06;;;;;;;;;;;;;;;12.31;81.78;101306.00;10335776;28;97239;-82
2024/01/29 02:28:09;;;;;;;;;;;;;;;12.38;81.59;101301.41;10350096;28;96796;-82
2024/01/29 02:33:13;;;;;;;;;;;;;;;12.36;81.87;101280.34;10404140;28;96611;-81
2024/01/29 02:38:18;;;;;;;;;;;;;;;12.36;81.53;101301.47;10350178;28;96707;-83
2024/01/29 02:43:21;;;;;;;;;;;;;;;12.37;81.52;101294.41;10334377;28;97260;-82
2024/01/29 02:48:24;;;;;;;;;;;;;;;12.38;81.48;101294.38;10357620;28;97313;-81
2024/01/29 02:53:29;;;;;;;;;;;;;;;12.38;81.40;101291.72;10417496;28;96746;-82
2024/01/29 02:58:32;;;;;;;;;;;;;;;12.40;81.29;101299.59;10394397;27;96858;-82
2024/01/29 03:03:35;;;;;;;;;;;;;;;12.39;81.28;101298.72;10375833;28;97200;-83
2024/01/29 03:08:40;;;;;;;;;;;;;;;12.44;80.85;101283.63;10413978;28;96652;-82
2024/01/29 03:13:44;;;;;;;;;;;;;;;12.41;81.32;101290.78;10416505;28;96970;-82
2024/01/29 03:18:47;;;;;;;;;;;;;;;12.43;80.73;101299.50;10416568;28;96847;-81
2024/01/29 03:23:52;;;;;;;;;;;;;;;12.39;80.96;101287.31;10416674;28;97144;-82
2024/01/29 03:28:55;;;;;;;;;;;;;;;12.28;81.33;101287.63;10416664;28;96864;-82
2024/01/29 03:33:58;;;;;;;;;;;;;;;12.26;81.09;101285.94;10402718;27;96841;-82
2024/01/29 03:39:03;;;;;;;;;;;;;;;12.23;80.89;101280.75;10373722;28;96622;-82
2024/01/29 03:44:06;;;;;;;;;;;;;;;12.25;80.69;101274.53;10374207;28;96773;-82
2024/01/29 03:49:10;;;;;;;;;;;;;;;12.23;80.93;101280.75;10373760;28;96904;-82
2024/01/29 03:54:15;;;;;;;;;;;;;;;12.31;80.45;101290.19;10372645;28;96801;-82
2024/01/29 03:59:18;;;;;;;;;;;;;;;12.29;80.28;101277.94;10374057;28;96722;-82
2024/01/29 04:04:21;;;;;;;;;;;;;;;12.21;80.67;101274.66;10373780;28;97161;-82
2024/01/29 04:09:26;;;;;;;;;;;;;;;12.28;80.69;101281.50;10373450;28;96918;-82
2024/01/29 04:14:30;;;;;;;;;;;;;;;12.24;80.30;101278.06;10394815;28;96993;-82
2024/01/29 04:19:33;;;;;;;;;;;;;;;12.22;80.58;101271.97;10415533;28;97092;-82
2024/01/29 04:24:38;;;;;;;;;;;;;;;12.25;80.48;101278.94;10394375;28;97445;-83
2024/01/29 04:29:41;;;;;;;;;;;;;;;12.24;80.44;101277.19;10377275;28;97195;-82
2024/01/29 04:34:45;;;;;;;;;;;;;;;12.21;80.49;101275.53;10414481;28;96651;-82
2024/01/29 04:39:49;;;;;;;;;;;;;;;12.17;80.22;101273.00;10414009;28;97033;-82
2024/01/29 04:44:52;;;;;;;;;;;;;;;12.19;80.09;101276.47;10413724;27;96642;-82
2024/01/29 04:49:56;;;;;;;;;;;;;;;12.17;80.37;101270.38;10412976;28;96966;-81
2024/01/29 04:55:01;;;;;;;;;;;;;;;12.14;80.47;101276.63;10402834;28;96794;-81
2024/01/29 05:00:08;;;;;;;;;;;;;;;12.09;80.62;101272.38;10371535;28;96783;-82
2024/01/29 05:05:11;;;;;;;;;;;;;;;12.11;80.06;101275.84;10391213;28;96653;-82
2024/01/29 05:10:16;;;;;;;;;;;;;;;12.02;80.41;101273.47;10412996;28;96668;-82
2024/01/29 05:15:19;;;;;;;;;;;;;;;11.97;80.75;101268.34;10412498;27;98149;-82
2024/01/29 05:20:23;;;;;;;;;;;;;;;11.95;80.94;101269.28;10408362;28;97076;-82
2024/01/29 05:25:29;;;;;;;;;;;;;;;11.91;81.18;101272.94;10371288;28;96778;-82
2024/01/29 05:30:32;;;;;;;;;;;;;;;11.83;81.19;101275.78;10370887;28;97436;-82
2024/01/29 05:35:35;;;;;;;;;;;;;;;11.77;81.84;101275.94;10364480;28;97029;-82
2024/01/29 05:40:40;;;;;;;;;;;;;;;11.76;81.44;101278.63;10390972;28;96676;-83
2024/01/29 05:45:43;;;;;;;;;;;;;;;11.72;81.68;101282.28;10411651;27;96940;-81
2024/01/29 05:50:46;;;;;;;;;;;;;;;11.68;81.93;101291.19;10412170;28;96695;-82
2024/01/29 05:55:51;;;;;;;;;;;;;;;11.68;82.00;101289.41;10377380;28;97064;-82
2024/01/29 06:00:54;;;;;;;;;;;;;;;11.62;81.81;101297.47;10329213;28;96905;-82
2024/01/29 06:05:58;;;;;;;;;;;;;;;11.54;81.97;101302.09;10328918;28;96673;-82
2024/01/29 06:11:03;;;;;;;;;;;;;;;11.57;81.35;101299.38;10329385;28;97062;-82
2024/01/29 06:16:06;;;;;;;;;;;;;;;11.61;81.78;101306.31;10412719;27;96847;-81
2024/01/29 06:21:10;;;;;;;;;;;;;;;11.60;81.26;101314.25;10395253;28;96718;-82
2024/01/29 06:26:14;;;;;;;;;;;;;;;11.71;80.84;101320.09;10376503;28;96617;-82
2024/01/29 06:31:17;;;;;;;;;;;;;;;11.69;80.84;101324.53;10377543;28;97627;-82
2024/01/29 06:36:20;;;;;;;;;;;;;;;11.69;81.11;101329.81;10376827;28;97447;-82
2024/01/29 06:41:26;;;;;;;;;;;;;;;11.67;80.49;101343.03;10375756;28;96692;-81
2024/01/29 06:46:29;;;;;;;;;;;;;;;11.71;80.49;101346.44;10377217;28;97020;-82
2024/01/29 06:51:32;;;;;;;;;;;;;;;11.73;80.33;101353.44;10376157;28;96927;-82
2024/01/29 06:56:37;;;;;;;;;;;;;;;11.67;80.43;101356.22;10376292;28;97603;-81
2024/01/29 07:01:40;;;;;;;;;;;;;;;11.60;80.92;101359.06;10374819;28;97457;-82
2024/01/29 07:06:44;;;;;;;;;;;;;;;11.62;81.29;101362.50;10376081;28;96726;-83
2024/01/29 07:11:49;;;;;;;;;;;;;;;11.62;80.79;101365.16;10375398;28;97362;-82
2024/01/29 07:16:52;;;;;;;;;;;;;;;11.59;81.00;101366.09;10374857;28;96872;-82
2024/01/29 07:21:57;;;;;;;;;;;;;;;11.64;80.85;101369.50;10375589;28;96692;-82
2024/01/29 07:27:02;;;;;;;;;;;;;;;11.62;80.58;101373.06;10373793;28;97603;-82
2024/01/29 07:32:05;;;;;;;;;;;;;;;11.60;81.05;101372.25;10374225;28;96659;-81
2024/01/29 07:37:08;;;;;;;;;;;;;;;11.57;80.50;101372.31;10375846;28;97729;-81
2024/01/29 07:42:13;;;;;;;;;;;;;;;11.55;80.64;101379.38;10374228;28;97413;-81
2024/01/29 07:47:16;;;;;;;;;;;;;;;11.53;80.81;101387.34;10373732;28;96844;-82
2024/01/29 07:52:22;;;;;;;;;;;;;;;11.47;80.73;101387.50;10372964;28;96880;-83
2024/01/29 07:57:27;;;;;;;;;;;;;;;11.43;80.95;101390.25;10373745;28;97443;-82
2024/01/29 08:02:30;;;;;;;;;;;;;;;11.41;81.07;101398.19;10373108;28;97531;-82
2024/01/29 08:07:33;;;;;;;;;;;;;;;11.46;80.48;101406.00;10373551;28;96612;-81
2024/01/29 08:12:38;;;;;;;;;;;;;;;11.41;81.19;101405.25;10373847;28;96740;-82
2024/01/29 08:17:42;;;;;;;;;;;;;;;11.39;80.72;101411.41;10373461;28;97251;-82
2024/01/29 08:22:45;;;;;;;;;;;;;;;11.26;81.76;101409.13;10372768;28;97061;-82
2024/01/29 08:27:50;;;;;;;;;;;;;;;11.25;81.28;101423.22;10373900;28;96777;-82
2024/01/29 08:32:54;;;;;;;;;;;;;;;11.31;81.25;101423.03;10372856;28;96571;-82
2024/01/29 08:37:59;;;;;;;;;;;;;;;11.32;81.04;101425.63;10371411;28;96743;-82
2024/01/29 08:43:07;;;;;;;;;;;;;;;11.36;80.74;101436.97;10371493;28;96755;-81
2024/01/29 08:48:11;;;;;;;;;;;;;;;11.45;81.12;101435.88;10372216;28;97523;-81
2024/01/29 08:53:14;;;;;;;;;;;;;;;11.46;80.93;101446.38;10369384;28;96594;-82
2024/01/29 08:58:22;;;;;;;;;;;;;;;11.52;80.39;101440.97;10330593;28;97005;-81
2024/01/29 09:03:28;;;;;;;;;;;;;;;11.55;80.00;101447.94;10353019;28;97431;-82
2024/01/29 09:08:31;;;;;;;;;;;;;;;11.69;79.59;101443.19;10371841;28;97425;-82
2024/01/29 09:13:35;;;;;;;;;;;;;;;11.82;79.28;101447.25;10371607;28;96739;-81
2024/01/29 09:18:39;;;;;;;;;;;;;;;11.82;78.98;101450.72;10372490;28;97462;-82
2024/01/29 09:23:42;;;;;;;;;;;;;;;11.82;78.57;101457.81;10371314;28;97081;-83
2024/01/29 09:28:47;;;;;;;;;;;;;;;12.05;78.09;101458.94;10371183;28;97752;-83
2024/01/29 09:33:50;;;;;;;;;;;;;;;12.10;77.57;101462.31;10369898;28;97306;-82
2024/01/29 09:38:54;;;;;;;;;;;;;;;12.19;77.27;101469.09;10403381;28;97338;-82
2024/01/29 09:44:00;;;;;;;;;;;;;;;12.31;76.63;101463.50;10394475;28;96678;-81
2024/01/29 09:49:04;;;;;;;;;;;;;;;12.46;76.04;101471.84;10369964;28;97414;-81
2024/01/29 09:54:08;;;;;;;;;;;;;;;12.57;75.33;101472.44;10383785;28;97360;-82
2024/01/29 09:59:12;;;;;;;;;;;;;;;12.64;74.97;101470.50;10377786;28;97374;-82
2024/01/29 10:04:16;;;;;;;;;;;;;;;12.86;74.14;101457.56;10377321;28;96853;-82
2024/01/29 10:09:20;;;;;;;;;;;;;;;13.10;73.58;101462.97;10378226;28;97439;-82
2024/01/29 10:14:27;;;;;;;;;;;;;;;13.02;73.51;101467.59;10376809;28;96874;-81
2024/01/29 10:19:38;;;;;;;;;;;;;;;12.94;73.48;101461.69;10377412;28;97471;-82
2024/01/29 10:24:42;;;;;;;;;;;;;;;12.99;73.36;101470.34;10375835;28;96650;-82
2024/01/29 10:29:50;;;;;;;;;;;;;;;12.88;73.60;101474.22;10376664;28;97600;-82
2024/01/29 10:34:53;;;;;;;;;;;;;;;13.00;73.45;101471.22;10376501;28;96760;-82
2024/01/29 10:40:00;;;;;;;;;;;;;;;13.01;73.42;101473.81;10376241;28;97095;-82
2024/01/29 10:45:06;;;;;;;;;;;;;;;13.02;73.99;101475.53;10352628;28;96871;-82
2024/01/29 10:50:10;;;;;;;;;;;;;;;13.21;72.96;101467.91;10376002;28;97227;-81
2024/01/29 10:55:14;;;;;;;;;;;;;;;13.27;72.67;101470.38;10375579;28;96865;-82
2024/01/29 11:00:19;;;;;;;;;;;;;;;13.21;72.79;101459.97;10376739;28;97407;-82
2024/01/29 11:05:22;;;;;;;;;;;;;;;13.13;72.77;101472.56;10375140;28;96828;-82
2024/01/29 11:10:26;;;;;;;;;;;;;;;13.21;71.92;101473.19;10375553;28;96921;-82
2024/01/29 11:15:31;;;;;;;;;;;;;;;13.44;71.43;101468.91;10378223;22;97564;-82
2024/01/29 11:20:34;;;;;;;;;;;;;;;13.59;70.96;101464.91;10373623;28;96721;-83
2024/01/29 11:25:38;;;;;;;;;;;;;;;13.74;70.52;101466.19;10335325;28;96682;-82
2024/01/29 11:30:48;;;;;;;;;;;;;;;13.92;69.89;101463.78;10333418;28;97176;-83
2024/01/29 11:35:56;;;;;;;;;;;;;;;14.05;69.75;101448.38;10342391;28;97378;-82
2024/01/29 11:41:01;;;;;;;;;;;;;;;14.00;69.14;101453.81;10291924;28;96751;-82
2024/01/29 11:46:06;;;;;;;;;;;;;;;13.99;68.79;101449.41;10291455;28;96875;-82
2024/01/29 11:51:10;;;;;;;;;;;;;;;14.12;68.49;101444.59;10296799;28;96981;-82
2024/01/29 11:56:13;;;;;;;;;;;;;;;14.09;68.59;101442.06;10373937;28;96770;-82
2024/01/29 12:01:18;;;;;;;;;;;;;;;14.44;68.33;101439.00;10373993;28;97300;-82
2024/01/29 12:06:21;;;;;;;;;;;;;;;14.41;67.99;101431.19;10372754;28;97082;-82
2024/01/29 12:11:25;;;;;;;;;;;;;;;14.58;67.72;101426.13;10341891;28;97278;-81
2024/01/29 12:16:30;;;;;;;;;;;;;;;14.73;67.86;101409.69;10289548;28;97391;-82
2024/01/29 12:21:34;;;;;;;;;;;;;;;14.87;67.01;101412.63;10290934;28;96707;-82
2024/01/29 12:26:39;;;;;;;;;;;;;;;15.17;66.92;101408.78;10319392;28;96690;-83
2024/01/29 12:31:44;;;;;;;;;;;;;;;15.26;66.67;101405.81;10373210;28;97133;-81
2024/01/29 12:36:50;;;;;;;;;;;;;;;15.52;65.24;101402.94;10372839;28;97181;-82
2024/01/29 12:41:54;;;;;;;;;;;;;;;15.63;65.59;101413.13;10373138;28;98558;-82
2024/01/29 12:46:58;;;;;;;;;;;;;;;15.70;64.60;101407.47;10371563;28;97246;-83
2024/01/29 12:52:02;;;;;;;;;;;;;;;15.88;64.51;101416.44;10372189;28;96684;-82
2024/01/29 12:57:06;;;;;;;;;;;;;;;16.35;63.77;101406.38;10371015;28;96822;-83
2024/01/29 13:02:11;;;;;;;;;;;;;;;16.33;62.73;101401.16;10371663;28;96941;-82
2024/01/29 13:07:15;;;;;;;;;;;;;;;16.75;61.90;101401.88;10371767;28;96679;-82
2024/01/29 13:12:18;;;;;;;;;;;;;;;16.93;61.66;101381.50;10330451;28;96632;-82
2024/01/29 13:17:26;;;;;;;;;;;;;;;17.41;61.35;101370.28;10341982;28;97510;-82
2024/01/29 13:22:30;;;;;;;;;;;;;;;17.61;58.32;101357.75;10371253;28;96808;-83
2024/01/29 13:27:34;;;;;;;;;;;;;;;17.94;58.30;101361.31;10376152;28;96684;-83
2024/01/29 13:32:39;;;;;;;;;;;;;;;17.99;56.99;101347.75;10379690;28;97256;-82
2024/01/29 13:37:42;;;;;;;;;;;;;;;18.09;56.82;101336.53;10378521;28;96684;-83
2024/01/29 13:42:45;;;;;;;;;;;;;;;18.10;56.37;101330.28;10378209;28;96791;-83
2024/01/29 13:47:52;;;;;;;;;;;;;;;18.69;55.70;101324.38;10376841;28;96621;-83
2024/01/29 13:52:56;;;;;;;;;;;;;;;19.61;52.60;101327.00;10378180;28;96787;-83
2024/01/29 13:57:59;;;;;;;;;;;;;;;20.32;51.52;101310.09;10377878;28;96802;-83
2024/01/29 14:03:04;;;;;;;;;;;;;;;20.60;50.39;101303.84;10377689;28;97395;-83
2024/01/29 14:08:07;;;;;;;;;;;;;;;21.21;48.77;101301.59;10363143;28;96817;-83
2024/01/29 14:13:17;;;;;;;;;;;;;;;21.95;46.94;101282.19;10346297;28;96751;-84
2024/01/29 14:18:22;;;;;;;;;;;;;;;21.23;47.33;101285.41;10334877;28;96787;-83
2024/01/29 14:23:26;;;;;;;;;;;;;;;21.20;49.21;101282.97;10336199;28;96883;-82
2024/01/29 14:28:29;;;;;;;;;;;;;;;21.43;47.97;101282.28;10373374;28;96795;-82
2024/01/29 14:33:34;;;;;;;;;;;;;;;21.94;47.52;101283.16;10376786;28;96726;-82
2024/01/29 14:38:38;;;;;;;;;;;;;;;21.87;47.83;101276.50;10331382;28;97299;-82
2024/01/29 14:43:41;;;;;;;;;;;;;;;21.95;47.29;101275.00;10340040;28;96763;-82
2024/01/29 14:48:45;;;;;;;;;;;;;;;21.97;46.97;101267.72;10375338;28;96901;-83
2024/01/29 14:53:49;;;;;;;;;;;;;;;22.06;47.39;101285.00;10376345;28;97065;-82
2024/01/29 14:58:52;;;;;;;;;;;;;;;22.69;46.57;101275.00;10375454;28;96867;-83
2024/01/29 15:03:58;;;;;;;;;;;;;;;22.10;47.09;101271.28;10367823;28;97259;-82
2024/01/29 15:09:03;;;;;;;;;;;;;;;21.61;48.09;101267.59;10334355;28;97278;-83
2024/01/29 15:14:07;;;;;;;;;;;;;;;20.52;50.33;101268.72;10334991;28;98468;-83
2024/01/29 15:19:11;;;;;;;;;;;;;;;20.22;50.86;101270.69;10368902;28;96795;-82
2024/01/29 15:24:15;;;;;;;;;;;;;;;19.83;51.33;101267.78;10374823;28;96721;-82
2024/01/29 15:29:18;;;;;;;;;;;;;;;20.12;50.73;101274.84;10374082;28;97019;-82
2024/01/29 15:34:23;;;;;;;;;;;;;;;19.74;51.89;101271.88;10374530;28;97425;-83
2024/01/29 15:39:29;;;;;;;;;;;;;;;19.22;53.00;101278.59;10374493;28;97307;-82
2024/01/29 15:44:32;;;;;;;;;;;;;;;18.78;53.98;101278.50;10374217;28;97260;-82
2024/01/29 15:49:38;;;;;;;;;;;;;;;18.88;53.99;101284.19;10372627;28;96736;-83
2024/01/29 15:54:42;;;;;;;;;;;;;;;19.19;53.33;101284.13;10374059;28;97787;-82
2024/01/29 15:59:45;;;;;;;;;;;;;;;19.33;52.98;101286.84;10373691;28;96701;-82
2024/01/29 16:04:51;;;;;;;;;;;;;;;19.07;53.66;101291.06;10341383;28;97425;-82
2024/01/29 16:09:54;;;;;;;;;;;;;;;19.10;54.48;101300.66;10362287;28;97965;-81
2024/01/29 16:14:58;;;;;;;;;;;;;;;19.08;53.76;101299.88;10331517;28;96680;-81
2024/01/29 16:20:03;;;;;;;;;;;;;;;18.96;56.38;101312.13;10330895;28;97201;-81
2024/01/29 16:25:07;;;;;;;;;;;;;;;18.73;57.57;101309.91;10349679;28;96771;-81
2024/01/29 16:30:11;;;;;;;;;;;;;;;18.69;59.34;101321.72;10372820;28;96762;-81
2024/01/29 16:35:16;;;;;;;;;;;;;;;18.65;60.29;101319.28;10373064;28;97148;-81
2024/01/29 16:40:21;;;;;;;;;;;;;;;18.60;58.76;101324.88;10372624;28;96629;-80
2024/01/29 16:45:25;;;;;;;;;;;;;;;18.47;59.51;101329.16;10371831;28;96761;-80
2024/01/29 16:50:29;;;;;;;;;;;;;;;18.34;60.10;101330.75;10372620;28;97305;-80
2024/01/29 16:55:33;;;;;;;;;;;;;;;18.23;59.12;101330.47;10373151;28;98202;-81
2024/01/29 17:00:36;;;;;;;;;;;;;;;17.96;60.73;101337.28;10371372;28;96937;-81
2024/01/29 17:05:41;;;;;;;;;;;;;;;17.63;60.97;101345.22;10372146;28;97050;-81
2024/01/29 17:10:45;;;;;;;;;;;;;;;17.37;60.78;101342.97;10338505;28;96783;-81
2024/01/29 17:15:48;;;;;;;;;;;;;;;17.24;60.57;101331.25;10345619;28;97324;-80
2024/01/29 17:20:54;;;;;;;;;;;;;;;17.09;61.59;101350.59;10371783;28;96878;-81
2024/01/29 17:25:58;;;;;;;;;;;;;;;16.99;61.46;101367.94;10371462;28;96732;-81
2024/01/29 17:31:04;;;;;;;;;;;;;;;16.87;61.57;101368.53;10371064;28;96617;-82
2024/01/29 17:36:10;;;;;;;;;;;;;;;16.79;61.92;101376.03;10371167;28;96715;-81
2024/01/29 17:41:13;;;;;;;;;;;;;;;16.65;63.18;101373.97;10330181;28;97532;-82
2024/01/29 17:46:17;;;;;;;;;;;;;;;16.54;63.14;101380.75;10329648;28;96730;-81
2024/01/29 17:51:22;;;;;;;;;;;;;;;16.36;62.54;101377.09;10357936;28;97514;-81
2024/01/29 17:56:25;;;;;;;;;;;;;;;16.07;65.31;101382.84;10358192;28;97807;-83
2024/01/29 18:01:28;;;;;;;;;;;;;;;15.94;66.19;101382.53;10328396;28;97169;-82
2024/01/29 18:06:33;;;;;;;;;;;;;;;15.89;65.86;101392.47;10342311;28;96908;-82
2024/01/29 18:11:37;;;;;;;;;;;;;;;15.78;67.02;101402.72;10370879;28;96717;-81
2024/01/29 18:16:40;;;;;;;;;;;;;;;15.81;66.65;101404.34;10376721;28;96842;-80
2024/01/29 18:21:45;;;;;;;;;;;;;;;15.80;66.34;101414.09;10377459;28;97056;-80
2024/01/29 18:26:48;;;;;;;;;;;;;;;15.66;66.88;101411.19;10376912;28;97301;-80
2024/01/29 18:31:53;;;;;;;;;;;;;;;15.57;67.71;101429.28;10376439;28;96667;-81
2024/01/29 18:36:58;;;;;;;;;;;;;;;15.48;67.87;101432.28;10360615;28;97534;-80
2024/01/29 18:42:03;;;;;;;;;;;;;;;15.44;68.33;101438.69;10361054;28;97065;-80
2024/01/29 18:47:06;;;;;;;;;;;;;;;15.29;68.75;101442.78;10376340;28;96807;-80
2024/01/29 18:52:11;;;;;;;;;;;;;;;14.99;69.81;101454.56;10374917;28;96829;-80
2024/01/29 18:57:14;;;;;;;;;;;;;;;14.81;69.31;101463.22;10347769;28;96826;-80
2024/01/29 19:02:17;;;;;;;;;;;;;;;14.69;69.50;101471.63;10334538;28;97025;-80
2024/01/29 19:07:22;;;;;;;;;;;;;;;14.48;72.08;101494.47;10333873;28;96682;-80
2024/01/29 19:12:27;;;;;;;;;;;;;;;14.32;72.94;101506.53;10334105;28;97138;-80
2024/01/29 19:17:30;;;;;;;;;;;;;;;14.20;73.00;101525.47;10370942;28;96714;-80
2024/01/29 19:22:34;;;;;;;;;;;;;;;14.15;72.72;101535.38;10375109;28;97255;-80
2024/01/29 19:27:38;;;;;;;;;;;;;;;14.11;72.23;101543.44;10375819;28;97258;-80
2024/01/29 19:32:41;;;;;;;;;;;;;;;13.95;73.69;101545.69;10374673;28;97579;-80
2024/01/29 19:37:45;;;;;;;;;;;;;;;13.91;73.37;101556.44;10341963;28;97149;-80
2024/01/29 19:42:49;;;;;;;;;;;;;;;13.71;73.34;101551.78;10332188;28;97411;-80
2024/01/29 19:47:52;;;;;;;;;;;;;;;13.58;74.90;101551.34;10340993;28;97078;-80
2024/01/29 19:52:57;;;;;;;;;;;;;;;13.72;73.43;101560.59;10355933;28;96741;-80
2024/01/29 19:58:00;;;;;;;;;;;;;;;13.56;73.44;101563.75;10333418;28;96935;-80
2024/01/29 20:03:03;;;;;;;;;;;;;;;13.73;73.42;101565.00;10332260;28;96781;-80
2024/01/29 20:08:08;;;;;;;;;;;;;;;13.64;74.73;101577.56;10367205;28;96789;-80
2024/01/29 20:13:12;;;;;;;;;;;;;;;13.61;73.50;101572.38;10373533;28;96728;-81
2024/01/29 20:18:16;;;;;;;;;;;;;;;13.63;73.74;101582.91;10373605;28;96805;-80
2024/01/29 20:23:22;;;;;;;;;;;;;;;13.59;73.75;101579.50;10373119;28;96644;-80
2024/01/29 20:28:25;;;;;;;;;;;;;;;13.46;74.99;101590.50;10373046;28;96768;-80
2024/01/29 20:33:28;;;;;;;;;;;;;;;13.33;75.08;101604.97;10372183;28;97020;-80
2024/01/29 20:38:34;;;;;;;;;;;;;;;13.22;76.31;101612.38;10356822;28;96803;-81
2024/01/29 20:43:39;;;;;;;;;;;;;;;13.27;76.08;101607.81;10372976;28;96761;-80
2024/01/29 20:48:42;;;;;;;;;;;;;;;13.30;75.46;101613.00;10362909;28;96836;-80
2024/01/29 20:53:47;;;;;;;;;;;;;;;13.22;75.40;101613.25;10331027;28;97532;-80
2024/01/29 20:58:50;;;;;;;;;;;;;;;12.97;75.84;101609.56;10347207;28;96789;-82
2024/01/29 21:03:54;;;;;;;;;;;;;;;12.79;78.96;101610.03;10330939;28;97233;-82
2024/01/29 21:08:59;;;;;;;;;;;;;;;12.69;80.23;101603.28;10331379;28;96751;-81
2024/01/29 21:14:02;;;;;;;;;;;;;;;12.65;79.78;101606.94;10348158;28;96733;-81
2024/01/29 21:19:06;;;;;;;;;;;;;;;12.34;81.31;101603.31;10371492;28;97145;-82
2024/01/29 21:24:11;;;;;;;;;;;;;;;12.35;81.91;101611.19;10370745;28;96826;-82
2024/01/29 21:29:14;;;;;;;;;;;;;;;12.49;80.37;101618.75;10371593;28;97052;-80
2024/01/29 21:34:17;;;;;;;;;;;;;;;12.60;79.75;101627.28;10371328;28;96889;-80
2024/01/29 21:39:22;;;;;;;;;;;;;;;12.60;79.15;101629.94;10370973;28;96738;-80
2024/01/29 21:44:25;;;;;;;;;;;;;;;12.56;78.30;101625.63;10370849;28;96767;-82
2024/01/29 21:49:29;;;;;;;;;;;;;;;12.59;78.29;101636.09;10372002;28;97286;-82
2024/01/29 21:54:35;;;;;;;;;;;;;;;12.52;78.49;101642.44;10377898;28;96779;-80
2024/01/29 21:59:38;;;;;;;;;;;;;;;12.36;78.89;101646.38;10355694;28;96807;-81
2024/01/29 22:04:43;;;;;;;;;;;;;;;12.17;81.35;101647.72;10351410;28;97238;-81
2024/01/29 22:09:48;;;;;;;;;;;;;;;12.08;81.01;101648.81;10377669;28;96689;-82
2024/01/29 22:14:52;;;;;;;;;;;;;;;12.17;80.76;101639.78;10375893;28;96681;-81
2024/01/29 22:19:55;;;;;;;;;;;;;;;12.03;80.75;101652.47;10378169;28;96942;-80
2024/01/29 22:25:00;;;;;;;;;;;;;;;11.98;82.60;101663.13;10294611;28;96704;-80
2024/01/29 22:30:04;;;;;;;;;;;;;;;11.91;82.79;101661.50;10314858;28;96688;-80
2024/01/29 22:35:07;;;;;;;;;;;;;;;11.88;82.54;101666.00;10335332;28;97698;-80
2024/01/29 22:40:12;;;;;;;;;;;;;;;11.81;84.11;101672.31;10363090;28;97007;-82
2024/01/29 22:45:16;;;;;;;;;;;;;;;11.80;83.63;101668.81;10359603;28;96685;-81
2024/01/29 22:50:20;;;;;;;;;;;;;;;11.76;84.60;101663.63;10335650;28;97014;-82
2024/01/29 22:55:24;;;;;;;;;;;;;;;11.70;85.20;101663.78;10346800;28;96673;-82
2024/01/29 23:00:29;;;;;;;;;;;;;;;11.66;84.98;101662.09;10345842;28;97081;-82
2024/01/29 23:05:32;;;;;;;;;;;;;;;11.57;85.28;101663.16;10333425;28;96974;-82
2024/01/29 23:10:37;;;;;;;;;;;;;;;11.59;84.64;101671.03;10334379;28;96686;-82
2024/01/29 23:15:40;;;;;;;;;;;;;;;11.50;85.94;101668.59;10373544;28;97511;-82
2024/01/29 23:20:43;;;;;;;;;;;;;;;11.43;85.66;101678.41;10375532;28;96772;-82
2024/01/29 23:25:48;;;;;;;;;;;;;;;11.28;85.14;101684.00;10374860;28;96677;-81
2024/01/29 23:30:51;;;;;;;;;;;;;;;11.17;86.74;101683.31;10359305;28;96693;-82
2024/01/29 23:35:55;;;;;;;;;;;;;;;11.11;87.09;101684.28;10374765;28;96645;-82
2024/01/29 23:41:00;;;;;;;;;;;;;;;10.98;87.95;101680.13;10315708;28;97252;-81
2024/01/29 23:46:03;;;;;;;;;;;;;;;10.98;87.54;101689.78;10333585;22;98270;-81
2024/01/29 23:51:06;;;;;;;;;;;;;;;11.21;87.63;101683.25;10297151;28;96630;-82
2024/01/29 23:56:11;;;;;;;;;;;;;;;11.18;87.66;101679.81;10290762;28;96753;-83
